Time;durP1;ratioP1;P1;durP2;ratioP2;P2;SDS_P1;SDS_P2;PMS_P1;PMS_P2;Temp;Humidity;BMP_temperature;BMP_pressure;BME280_temperature;BME280_humidity;BME280_pressure;Samples;Min_cycle;Max_cycle;Signal;HPM_P1;HPM_P2
2022/02/23 00:02:06;;;;;;;12.50;2.90;;;8.10;99.90;;;;;;5073059;28;20524;-66
2022/02/23 00:04:33;;;;;;;11.90;3.40;;;8.10;99.90;;;;;;5073338;28;20450;-66
2022/02/23 00:07:00;;;;;;;17.07;3.33;;;8.10;99.90;;;;;;5073437;28;20471;-66
2022/02/23 00:09:26;;;;;;;11.30;3.63;;;8.10;99.90;;;;;;5073557;28;20471;-66
2022/02/23 00:11:53;;;;;;;15.33;3.77;;;8.00;99.90;;;;;;5073526;28;20506;-66
2022/02/23 00:14:21;;;;;;;12.20;3.03;;;8.00;99.90;;;;;;5073292;28;20908;-67
2022/02/23 00:16:48;;;;;;;19.77;3.27;;;8.00;99.90;;;;;;5073250;28;20958;-67
2022/02/23 00:19:15;;;;;;;16.90;3.40;;;7.90;99.90;;;;;;5073386;28;20491;-66
2022/02/23 00:21:41;;;;;;;11.73;3.17;;;7.90;99.90;;;;;;5073352;28;20912;-66
2022/02/23 00:24:08;;;;;;;11.70;2.73;;;7.90;99.90;;;;;;5073492;28;20955;-66
2022/02/23 00:26:35;;;;;;;8.07;3.43;;;7.80;99.90;;;;;;5073270;28;20441;-66
2022/02/23 00:29:02;;;;;;;19.40;4.50;;;7.80;99.90;;;;;;5073545;28;20457;-67
2022/02/23 00:31:30;;;;;;;14.67;3.17;;;7.70;99.90;;;;;;5073337;28;20573;-66
2022/02/23 00:33:57;;;;;;;14.20;3.30;;;7.70;99.90;;;;;;5073142;28;20924;-66
2022/02/23 00:36:25;;;;;;;15.33;3.43;;;7.70;99.90;;;;;;5073664;28;20452;-67
2022/02/23 00:38:52;;;;;;;11.93;3.20;;;7.70;99.90;;;;;;5073385;28;20488;-66
2022/02/23 00:41:19;;;;;;;7.90;3.00;;;7.60;99.90;;;;;;5073221;28;20456;-67
2022/02/23 00:43:46;;;;;;;19.37;3.10;;;7.60;99.90;;;;;;5072999;28;20449;-67
2022/02/23 00:46:13;;;;;;;9.63;2.67;;;7.60;99.90;;;;;;5073379;28;20536;-67
2022/02/23 00:48:41;;;;;;;11.87;4.60;;;7.60;99.90;;;;;;5073353;28;20801;-67
2022/02/23 00:51:08;;;;;;;8.57;2.80;;;7.60;99.90;;;;;;5073461;28;20449;-67
2022/02/23 00:53:35;;;;;;;14.87;2.60;;;7.60;99.90;;;;;;5073534;28;20445;-66
2022/02/23 00:56:01;;;;;;;11.90;3.40;;;7.50;99.90;;;;;;5073599;28;20792;-67
2022/02/23 00:58:28;;;;;;;13.50;3.77;;;7.50;99.90;;;;;;5073336;28;20534;-67
2022/02/23 01:00:55;;;;;;;6.73;2.40;;;7.50;99.90;;;;;;5073706;28;20447;-67
2022/02/23 01:03:22;;;;;;;9.93;2.93;;;7.50;99.90;;;;;;5073854;28;20448;-67
2022/02/23 01:05:50;;;;;;;14.77;3.00;;;7.40;99.90;;;;;;5073230;28;20471;-67
2022/02/23 01:08:17;;;;;;;12.17;2.60;;;7.40;99.90;;;;;;5072750;28;20506;-67
2022/02/23 01:10:44;;;;;;;7.67;2.43;;;7.40;99.90;;;;;;5073082;28;20448;-66
2022/02/23 01:13:11;;;;;;;14.67;3.13;;;7.30;99.90;;;;;;5072777;28;20954;-66
2022/02/23 01:15:38;;;;;;;8.83;2.53;;;7.30;99.90;;;;;;5076637;28;20851;-66
2022/02/23 01:18:04;;;;;;;10.33;2.97;;;7.30;99.90;;;;;;5076373;28;20492;-67
2022/02/23 01:20:31;;;;;;;9.90;2.57;;;7.30;99.90;;;;;;5076292;28;20448;-67
2022/02/23 01:22:59;;;;;;;8.67;2.60;;;7.20;99.90;;;;;;5076534;28;20453;-67
2022/02/23 01:25:28;;;;;;;16.40;2.77;;;7.20;99.90;;;;;;5076743;28;20808;-66
2022/02/23 01:27:55;;;;;;;10.80;2.50;;;7.20;99.90;;;;;;5076218;28;20927;-66
2022/02/23 01:30:21;;;;;;;8.70;3.40;;;7.10;99.90;;;;;;5076448;28;20479;-66
2022/02/23 01:32:49;;;;;;;14.83;2.70;;;7.10;99.90;;;;;;5076388;28;20463;-66
2022/02/23 01:35:15;;;;;;;13.90;2.97;;;7.10;99.90;;;;;;5076279;28;20882;-66
2022/02/23 01:37:42;;;;;;;9.00;2.67;;;7.00;99.90;;;;;;5076872;28;20436;-67
2022/02/23 01:40:12;;;;;;;15.20;2.97;;;7.00;99.90;;;;;;5076351;28;20448;-66
2022/02/23 01:42:39;;;;;;;6.70;2.40;;;7.00;99.90;;;;;;5076224;28;20767;-66
2022/02/23 01:45:08;;;;;;;12.50;3.13;;;7.00;99.90;;;;;;5075794;28;20445;-66
2022/02/23 01:47:35;;;;;;;14.40;2.53;;;7.00;99.90;;;;;;5075819;28;20453;-66
2022/02/23 01:50:01;;;;;;;8.70;2.07;;;7.10;99.90;;;;;;5076157;28;20818;-67
2022/02/23 01:52:28;;;;;;;6.47;2.73;;;7.00;99.90;;;;;;5076022;28;20455;-67
2022/02/23 01:54:56;;;;;;;10.53;2.33;;;7.00;99.90;;;;;;5076041;28;20429;-66
2022/02/23 01:57:25;;;;;;;11.00;2.43;;;6.90;99.90;;;;;;5075927;28;20429;-67
2022/02/23 01:59:52;;;;;;;8.53;2.20;;;6.90;99.90;;;;;;5076017;28;20488;-66
2022/02/23 02:02:20;;;;;;;10.90;2.40;;;6.90;99.90;;;;;;5075787;28;20459;-66
2022/02/23 02:04:47;;;;;;;7.20;2.40;;;6.90;99.90;;;;;;5075729;28;20429;-66
2022/02/23 02:07:14;;;;;;;10.50;2.80;;;6.80;99.90;;;;;;5075240;28;20456;-66
2022/02/23 02:09:41;;;;;;;21.10;2.90;;;6.80;99.90;;;;;;5075380;28;20468;-66
2022/02/23 02:12:08;;;;;;;8.40;2.70;;;6.80;99.90;;;;;;5075661;28;20448;-66
2022/02/23 02:14:36;;;;;;;13.00;3.23;;;6.80;99.90;;;;;;5075661;28;20451;-66
2022/02/23 02:17:03;;;;;;;14.33;3.50;;;6.70;99.90;;;;;;5075463;28;20815;-66
2022/02/23 02:19:31;;;;;;;13.27;2.63;;;6.80;99.90;;;;;;5075078;28;21007;-66
2022/02/23 02:22:01;;;;;;;17.13;3.40;;;6.70;99.90;;;;;;5075520;28;20480;-66
2022/02/23 02:24:29;;;;;;;11.53;2.73;;;6.70;99.90;;;;;;5074880;28;20433;-66
2022/02/23 02:26:57;;;;;;;8.70;2.80;;;6.70;99.90;;;;;;5075404;28;20462;-66
2022/02/23 02:29:24;;;;;;;13.53;3.03;;;6.70;99.90;;;;;;5075414;28;20479;-66
2022/02/23 02:31:52;;;;;;;20.97;2.90;;;6.80;99.90;;;;;;5075133;28;20440;-66
2022/02/23 02:34:19;;;;;;;9.00;2.60;;;6.80;99.90;;;;;;5075146;28;20475;-67
2022/02/23 02:36:48;;;;;;;9.20;2.40;;;6.80;99.90;;;;;;5075143;28;20453;-67
2022/02/23 02:39:17;;;;;;;17.23;3.20;;;6.80;99.90;;;;;;5075029;28;20481;-67
2022/02/23 02:41:44;;;;;;;9.53;2.63;;;6.80;99.90;;;;;;5074676;28;20932;-67
2022/02/23 02:44:11;;;;;;;13.23;2.70;;;6.80;99.90;;;;;;5074992;28;20452;-66
2022/02/23 02:46:38;;;;;;;10.30;3.30;;;6.80;99.90;;;;;;5074901;28;20448;-66
2022/02/23 02:49:05;;;;;;;7.23;2.57;;;6.80;99.90;;;;;;5074543;28;20465;-67
2022/02/23 02:51:31;;;;;;;10.63;3.13;;;6.70;99.90;;;;;;5074889;28;20818;-66
2022/02/23 02:53:58;;;;;;;10.40;2.80;;;6.80;99.90;;;;;;5074874;28;20445;-67
2022/02/23 02:56:27;;;;;;;9.70;3.03;;;6.70;99.90;;;;;;5074719;28;20440;-67
2022/02/23 02:58:53;;;;;;;9.37;2.20;;;6.70;99.90;;;;;;5074673;28;20488;-67
2022/02/23 03:01:21;;;;;;;7.67;3.50;;;6.70;99.90;;;;;;5074588;28;20505;-67
2022/02/23 03:03:48;;;;;;;11.70;2.77;;;6.70;99.90;;;;;;5074573;28;20449;-67
2022/02/23 03:06:15;;;;;;;14.93;3.43;;;6.70;99.90;;;;;;5074596;28;20452;-67
2022/02/23 03:08:42;;;;;;;17.30;4.50;;;6.70;99.90;;;;;;5074121;28;20476;-67
2022/02/23 03:11:09;;;;;;;10.70;3.47;;;6.70;99.90;;;;;;5074443;28;20444;-67
2022/02/23 03:13:37;;;;;;;10.43;2.87;;;6.60;99.90;;;;;;5074471;28;20477;-67
2022/02/23 03:16:05;;;;;;;12.93;2.90;;;6.50;99.90;;;;;;5074087;28;20441;-67
2022/02/23 03:18:32;;;;;;;7.60;2.13;;;6.50;99.90;;;;;;5074157;28;20485;-67
2022/02/23 03:20:59;;;;;;;13.50;3.43;;;6.50;99.90;;;;;;5074229;28;20444;-66
2022/02/23 03:23:26;;;;;;;10.10;3.10;;;6.50;99.90;;;;;;5074041;28;20448;-66
2022/02/23 03:25:52;;;;;;;11.90;6.70;;;6.50;99.90;;;;;;5074991;28;20436;-67
2022/02/23 03:28:19;;;;;;;8.80;3.27;;;6.60;99.90;;;;;;5074426;28;20468;-67
2022/02/23 03:30:48;;;;;;;11.93;3.00;;;6.50;99.90;;;;;;5074142;28;20518;-67
2022/02/23 03:33:14;;;;;;;16.53;3.60;;;6.50;99.90;;;;;;5074168;28;20463;-67
2022/02/23 03:35:43;;;;;;;10.80;2.80;;;6.50;99.90;;;;;;5074234;28;20458;-67
2022/02/23 03:38:11;;;;;;;12.93;2.83;;;6.50;99.90;;;;;;5073614;28;20465;-67
2022/02/23 03:40:38;;;;;;;7.40;2.90;;;6.50;99.90;;;;;;5074126;28;20844;-67
2022/02/23 03:43:06;;;;;;;14.13;2.60;;;6.50;99.90;;;;;;5073739;28;20429;-67
2022/02/23 03:45:33;;;;;;;13.00;4.07;;;6.40;99.90;;;;;;5073771;28;20944;-67
2022/02/23 03:48:01;;;;;;;10.53;3.53;;;6.30;99.90;;;;;;5073738;28;20472;-67
2022/02/23 03:50:28;;;;;;;6.90;3.03;;;6.30;99.90;;;;;;5074029;28;20448;-67
2022/02/23 03:52:55;;;;;;;9.83;2.63;;;6.30;99.90;;;;;;5073843;28;20523;-66
2022/02/23 03:55:22;;;;;;;15.43;2.80;;;6.30;99.90;;;;;;5073948;28;20445;-67
2022/02/23 03:57:49;;;;;;;6.80;2.63;;;6.30;99.90;;;;;;5073458;28;20958;-67
2022/02/23 04:00:16;;;;;;;13.67;3.07;;;6.30;99.90;;;;;;5073399;28;20476;-66
2022/02/23 04:02:44;;;;;;;9.67;3.20;;;6.30;99.90;;;;;;5073689;28;20453;-66
2022/02/23 04:05:12;;;;;;;9.87;2.87;;;6.30;99.90;;;;;;5073736;28;20441;-66
2022/02/23 04:07:40;;;;;;;9.70;3.17;;;6.30;99.90;;;;;;5073485;28;20464;-67
2022/02/23 04:10:08;;;;;;;15.97;3.50;;;6.20;99.90;;;;;;5073682;28;20475;-66
2022/02/23 04:12:34;;;;;;;12.03;2.67;;;6.20;99.90;;;;;;5073568;28;20448;-66
2022/02/23 04:15:01;;;;;;;18.37;4.07;;;6.20;99.90;;;;;;5073608;28;20456;-66
2022/02/23 04:17:28;;;;;;;22.77;3.37;;;6.20;99.90;;;;;;5073604;28;20448;-67
2022/02/23 04:19:55;;;;;;;18.30;3.70;;;6.20;99.90;;;;;;5073404;28;20487;-66
2022/02/23 04:22:23;;;;;;;14.47;3.70;;;6.10;99.90;;;;;;5073620;28;20456;-66
2022/02/23 04:24:50;;;;;;;10.97;2.87;;;6.20;99.90;;;;;;5073401;28;20425;-66
2022/02/23 04:27:16;;;;;;;9.33;2.47;;;6.20;99.90;;;;;;5074263;28;20448;-67
2022/02/23 04:29:43;;;;;;;10.97;2.83;;;6.20;99.90;;;;;;5073414;28;20975;-67
2022/02/23 04:32:10;;;;;;;10.47;3.30;;;6.20;99.90;;;;;;5074051;28;20433;-67
2022/02/23 04:34:36;;;;;;;10.53;2.90;;;6.10;99.90;;;;;;5074182;28;20444;-67
2022/02/23 04:37:03;;;;;;;15.33;3.20;;;6.10;99.90;;;;;;5074200;28;20485;-67
2022/02/23 04:39:31;;;;;;;14.20;3.53;;;6.10;99.90;;;;;;5073716;28;20484;-67
2022/02/23 04:41:58;;;;;;;9.80;4.67;;;6.00;99.90;;;;;;5073606;28;20814;-67
2022/02/23 04:44:25;;;;;;;16.40;4.23;;;6.00;99.90;;;;;;5073484;28;20449;-67
2022/02/23 04:46:52;;;;;;;14.57;3.20;;;6.00;99.90;;;;;;5073022;28;20445;-66
2022/02/23 04:49:18;;;;;;;12.33;3.00;;;5.90;99.90;;;;;;5076522;28;20469;-67
2022/02/23 04:51:45;;;;;;;14.23;3.83;;;6.00;99.90;;;;;;5076851;28;20908;-67
2022/02/23 04:54:12;;;;;;;8.33;3.00;;;6.00;99.90;;;;;;5076791;28;20444;-67
2022/02/23 04:56:40;;;;;;;12.30;3.97;;;6.00;99.90;;;;;;5076717;28;20447;-67
2022/02/23 04:59:08;;;;;;;9.13;3.60;;;6.10;99.90;;;;;;5077173;28;20495;-67
2022/02/23 05:01:35;;;;;;;10.27;3.80;;;6.10;99.90;;;;;;5076895;28;20524;-67
2022/02/23 05:04:02;;;;;;;10.40;3.10;;;6.00;99.90;;;;;;5076817;28;20445;-67
2022/02/23 05:06:29;;;;;;;10.60;2.70;;;6.10;99.90;;;;;;5076743;28;20444;-67
2022/02/23 05:08:56;;;;;;;13.30;4.30;;;6.10;99.90;;;;;;5077642;28;20837;-66
2022/02/23 05:11:22;;;;;;;13.23;3.50;;;6.10;99.90;;;;;;5077276;28;20452;-67
2022/02/23 05:13:52;;;;;;;11.60;3.00;;;6.00;99.90;;;;;;5076632;28;20449;-67
2022/02/23 05:16:21;;;;;;;21.43;4.00;;;6.00;99.90;;;;;;5076511;28;20498;-67
2022/02/23 05:18:47;;;;;;;16.17;4.87;;;6.00;99.90;;;;;;5076358;28;20468;-67
2022/02/23 05:21:14;;;;;;;14.53;3.70;;;5.90;99.90;;;;;;5076442;28;20460;-67
2022/02/23 05:23:41;;;;;;;9.83;4.37;;;5.90;99.90;;;;;;5076446;28;20451;-67
2022/02/23 05:26:09;;;;;;;11.30;4.37;;;5.90;99.90;;;;;;5076437;28;20444;-67
2022/02/23 05:28:36;;;;;;;14.63;3.67;;;5.80;99.90;;;;;;5076311;28;20499;-67
2022/02/23 05:31:04;;;;;;;9.90;3.90;;;5.80;99.90;;;;;;5076292;28;20444;-66
2022/02/23 05:33:31;;;;;;;15.37;4.30;;;5.80;99.90;;;;;;5076176;28;20445;-66
2022/02/23 05:35:58;;;;;;;10.60;4.27;;;5.90;99.90;;;;;;5076174;28;20448;-66
2022/02/23 05:38:25;;;;;;;14.37;4.13;;;5.80;99.90;;;;;;5076179;28;20817;-66
2022/02/23 05:40:51;;;;;;;11.07;5.10;;;5.80;99.90;;;;;;5076190;28;20480;-66
2022/02/23 05:43:18;;;;;;;9.80;3.70;;;5.90;99.90;;;;;;5075862;28;20448;-66
2022/02/23 05:45:45;;;;;;;14.67;3.97;;;5.90;99.90;;;;;;5075814;28;20459;-66
2022/02/23 05:48:13;;;;;;;14.17;5.03;;;5.90;99.90;;;;;;5076206;28;20471;-66
2022/02/23 05:50:40;;;;;;;12.93;4.37;;;6.00;99.90;;;;;;5076207;28;20421;-66
2022/02/23 05:53:07;;;;;;;15.57;3.57;;;6.10;99.90;;;;;;5076021;28;20445;-66
2022/02/23 05:55:34;;;;;;;18.67;4.27;;;6.10;99.90;;;;;;5075454;28;20813;-66
2022/02/23 05:58:00;;;;;;;14.63;3.57;;;6.10;99.90;;;;;;5075448;28;20463;-66
2022/02/23 06:00:27;;;;;;;13.50;4.27;;;6.10;99.90;;;;;;5075062;28;20488;-66
2022/02/23 06:02:54;;;;;;;14.63;4.13;;;6.10;99.90;;;;;;5075763;28;20433;-66
2022/02/23 06:05:22;;;;;;;18.70;5.60;;;6.10;99.90;;;;;;5075299;28;20939;-66
2022/02/23 06:07:49;;;;;;;12.73;4.70;;;6.10;99.90;;;;;;5075214;28;20456;-66
2022/02/23 06:10:15;;;;;;;17.20;4.07;;;6.10;99.90;;;;;;5075585;28;20443;-65
2022/02/23 06:12:42;;;;;;;10.43;4.03;;;6.10;99.90;;;;;;5075228;28;21026;-66
2022/02/23 06:15:10;;;;;;;20.53;4.20;;;6.00;99.90;;;;;;5075714;28;20451;-68
2022/02/23 06:17:37;;;;;;;13.70;4.20;;;6.00;99.90;;;;;;5075774;28;20444;-67
2022/02/23 06:20:04;;;;;;;9.70;3.50;;;6.10;99.90;;;;;;5075344;28;20507;-67
2022/02/23 06:22:33;;;;;;;14.00;5.20;;;6.10;99.90;;;;;;5075582;28;20518;-66
2022/02/23 06:24:59;;;;;;;10.17;5.00;;;6.10;99.90;;;;;;5075325;28;20449;-66
2022/02/23 06:27:26;;;;;;;15.90;3.90;;;6.10;99.90;;;;;;5074980;28;20444;-66
2022/02/23 06:29:53;;;;;;;11.70;5.30;;;6.10;99.90;;;;;;5075230;28;20460;-71
2022/02/23 06:32:19;;;;;;;20.30;3.90;;;6.10;99.90;;;;;;5074994;28;20448;-67
2022/02/23 06:34:46;;;;;;;7.63;3.30;;;6.10;99.90;;;;;;5074628;28;20819;-67
2022/02/23 06:37:15;;;;;;;17.90;4.50;;;6.20;99.90;;;;;;5074843;28;20456;-67
2022/02/23 06:39:43;;;;;;;9.90;4.00;;;6.20;99.90;;;;;;5074716;28;20483;-68
2022/02/23 06:42:11;;;;;;;11.10;3.77;;;6.30;99.90;;;;;;5074408;28;20527;-69
2022/02/23 06:44:38;;;;;;;19.77;4.97;;;6.30;99.90;;;;;;5074668;28;20460;-68
2022/02/23 06:47:05;;;;;;;13.23;4.90;;;6.30;99.90;;;;;;5074623;28;20447;-68
2022/02/23 06:49:34;;;;;;;13.40;4.27;;;6.40;99.90;;;;;;5075364;28;20525;-67
2022/02/23 06:52:02;;;;;;;9.73;3.60;;;6.40;99.90;;;;;;5074491;28;20953;-67
2022/02/23 06:54:29;;;;;;;13.97;4.73;;;6.40;99.90;;;;;;5074703;28;20440;-67
2022/02/23 06:56:57;;;;;;;8.57;4.07;;;6.40;99.90;;;;;;5074666;28;20453;-67
2022/02/23 06:59:24;;;;;;;10.43;3.90;;;6.40;99.90;;;;;;5073945;28;20983;-67
2022/02/23 07:01:51;;;;;;;15.57;5.47;;;6.40;99.90;;;;;;5074473;28;20453;-67
2022/02/23 07:04:18;;;;;;;17.73;6.00;;;6.40;99.90;;;;;;5074134;28;20447;-67
2022/02/23 07:06:45;;;;;;;19.93;6.23;;;6.50;99.90;;;;;;5073867;28;20571;-67
2022/02/23 07:09:12;;;;;;;16.37;6.40;;;6.50;99.90;;;;;;5074215;28;20472;-67
2022/02/23 07:11:39;;;;;;;18.03;5.23;;;6.50;99.90;;;;;;5073332;28;20448;-67
2022/02/23 07:14:09;;;;;;;14.80;5.50;;;6.60;99.90;;;;;;5074194;28;20441;-67
2022/02/23 07:16:37;;;;;;;15.87;5.03;;;6.60;99.90;;;;;;5073774;28;20843;-67
2022/02/23 07:19:04;;;;;;;11.70;4.40;;;6.60;99.90;;;;;;5074494;28;20878;-68
2022/02/23 07:21:31;;;;;;;12.83;4.60;;;6.60;99.90;;;;;;5073925;28;20476;-67
2022/02/23 07:23:59;;;;;;;13.37;4.47;;;6.60;99.90;;;;;;5073924;28;20471;-67
2022/02/23 07:26:26;;;;;;;15.67;5.03;;;6.60;99.90;;;;;;5073945;28;20448;-67
2022/02/23 07:28:53;;;;;;;16.07;5.50;;;6.60;99.90;;;;;;5073819;28;20846;-67
2022/02/23 07:31:21;;;;;;;11.93;5.10;;;6.60;99.90;;;;;;5073444;28;20931;-67
2022/02/23 07:33:48;;;;;;;12.70;4.83;;;6.70;99.90;;;;;;5073655;28;20453;-67
2022/02/23 07:36:16;;;;;;;15.80;4.20;;;6.70;99.90;;;;;;5073779;28;20531;-67
2022/02/23 07:38:45;;;;;;;17.03;4.33;;;6.70;99.90;;;;;;5073623;28;20468;-68
2022/02/23 07:41:19;;;;;;;15.50;4.40;;;6.70;99.90;;;;;;5073658;28;20481;-67
2022/02/23 07:43:45;;;;;;;14.70;4.83;;;6.70;99.90;;;;;;5073741;28;20429;-67
2022/02/23 07:46:12;;;;;;;19.70;5.00;;;6.80;99.90;;;;;;5073951;28;20455;-67
2022/02/23 07:48:41;;;;;;;15.47;5.30;;;6.80;99.90;;;;;;5073757;28;20473;-68
2022/02/23 07:51:08;;;;;;;15.37;4.83;;;6.80;99.90;;;;;;5074175;28;20597;-67
2022/02/23 07:53:35;;;;;;;15.30;5.97;;;6.90;99.90;;;;;;5073741;28;20448;-67
2022/02/23 07:56:01;;;;;;;20.10;5.07;;;6.90;99.90;;;;;;5074226;28;20456;-67
2022/02/23 07:58:28;;;;;;;14.67;5.53;;;6.90;99.90;;;;;;5073770;28;20456;-68
2022/02/23 08:00:55;;;;;;;19.30;6.30;;;7.00;99.90;;;;;;5074109;28;20495;-68
2022/02/23 08:03:23;;;;;;;12.10;4.40;;;7.00;99.90;;;;;;5074290;28;20441;-68
2022/02/23 08:05:51;;;;;;;18.27;4.77;;;7.00;99.90;;;;;;5073999;28;20444;-67
2022/02/23 08:08:19;;;;;;;14.80;4.80;;;7.10;99.90;;;;;;5073854;28;20483;-68
2022/02/23 08:10:46;;;;;;;13.70;4.60;;;7.10;99.90;;;;;;5075252;28;20441;-68
2022/02/23 08:13:13;;;;;;;16.70;4.40;;;7.20;99.90;;;;;;5074991;28;20449;-68
2022/02/23 08:21:13;;;;;;;15.20;5.23;;;7.20;99.90;;;;;;5073831;28;20448;-67
2022/02/23 08:23:43;;;;;;;20.23;5.30;;;7.30;99.90;;;;;;5078392;28;20842;-67
2022/02/23 08:26:11;;;;;;;21.90;5.23;;;7.40;99.90;;;;;;5080637;28;20437;-67
2022/02/23 08:28:37;;;;;;;14.20;4.50;;;7.40;99.90;;;;;;5080188;28;20480;-67
2022/02/23 08:31:05;;;;;;;11.63;4.60;;;7.50;99.90;;;;;;5080064;28;20519;-67
2022/02/23 08:33:32;;;;;;;13.43;4.53;;;7.60;99.90;;;;;;5080152;28;20594;-67
2022/02/23 08:35:59;;;;;;;15.57;5.03;;;7.60;99.90;;;;;;5079915;28;20447;-67
2022/02/23 08:38:27;;;;;;;14.70;5.53;;;7.70;99.90;;;;;;5079409;28;20993;-67
2022/02/23 08:40:54;;;;;;;14.70;4.10;;;7.80;99.90;;;;;;5079509;28;20966;-67
2022/02/23 08:43:21;;;;;;;7.80;4.80;;;7.80;99.90;;;;;;5079902;28;20448;-67
2022/02/23 08:45:48;;;;;;;11.60;4.40;;;7.80;99.90;;;;;;5080016;28;20463;-67
2022/02/23 08:48:14;;;;;;;20.93;4.60;;;7.90;99.90;;;;;;5079558;28;20475;-67
2022/02/23 08:50:41;;;;;;;12.40;4.40;;;7.90;99.90;;;;;;5079618;28;20448;-67
2022/02/23 08:53:08;;;;;;;14.30;5.17;;;8.00;99.90;;;;;;5079730;28;20456;-67
2022/02/23 08:55:36;;;;;;;20.87;5.00;;;8.00;99.90;;;;;;5079576;28;20455;-67
2022/02/23 08:58:03;;;;;;;11.03;4.37;;;7.90;99.90;;;;;;5079480;28;21009;-68
2022/02/23 09:00:30;;;;;;;11.60;5.37;;;8.00;99.90;;;;;;5079623;28;20483;-67
2022/02/23 09:02:57;;;;;;;19.23;5.27;;;8.10;99.90;;;;;;5079213;28;20931;-67
2022/02/23 09:05:24;;;;;;;11.30;4.30;;;8.10;99.90;;;;;;5080225;28;20451;-67
2022/02/23 09:07:51;;;;;;;14.83;4.30;;;8.20;99.90;;;;;;5079117;28;20464;-68
2022/02/23 09:10:18;;;;;;;10.17;5.20;;;8.20;99.90;;;;;;5079635;28;20451;-67
2022/02/23 09:12:47;;;;;;;13.60;6.00;;;8.10;99.90;;;;;;5079345;28;20856;-67
2022/02/23 09:15:14;;;;;;;16.03;6.70;;;8.10;99.90;;;;;;5079234;28;20545;-67
2022/02/23 09:17:42;;;;;;;15.70;4.57;;;8.20;99.90;;;;;;5079449;28;20453;-67
2022/02/23 09:20:10;;;;;;;16.13;5.40;;;8.20;99.90;;;;;;5079531;28;20538;-67
2022/02/23 09:22:36;;;;;;;12.03;4.73;;;8.20;99.90;;;;;;5079232;28;20456;-67
2022/02/23 09:25:03;;;;;;;14.77;5.30;;;8.30;99.90;;;;;;5078950;28;20820;-67
2022/02/23 09:27:30;;;;;;;14.87;4.93;;;8.40;99.90;;;;;;5079366;28;20818;-67
2022/02/23 09:29:58;;;;;;;16.33;5.67;;;8.50;99.90;;;;;;5079113;28;20510;-67
2022/02/23 09:32:25;;;;;;;20.50;6.73;;;8.60;99.90;;;;;;5079164;28;20449;-67
2022/02/23 09:34:52;;;;;;;14.30;5.30;;;8.60;99.90;;;;;;5076561;28;20448;-67
2022/02/23 09:37:19;;;;;;;20.40;5.70;;;8.70;99.90;;;;;;5076138;28;20476;-68
2022/02/23 09:39:46;;;;;;;14.83;5.50;;;8.70;99.90;;;;;;5075515;28;20904;-67
2022/02/23 09:42:13;;;;;;;12.77;5.47;;;8.70;99.90;;;;;;5075806;28;20484;-67
2022/02/23 09:44:41;;;;;;;9.33;4.60;;;8.90;99.90;;;;;;5075579;28;20416;-67
2022/02/23 09:47:10;;;;;;;18.10;4.83;;;9.00;99.90;;;;;;5075410;28;20895;-67
2022/02/23 09:49:37;;;;;;;9.90;4.37;;;9.10;99.90;;;;;;5075345;28;20484;-67
2022/02/23 09:52:07;;;;;;;17.10;5.80;;;9.10;99.90;;;;;;5075579;28;20447;-67
2022/02/23 09:54:33;;;;;;;14.57;5.30;;;9.20;99.90;;;;;;5075506;28;20452;-67
2022/02/23 09:57:00;;;;;;;16.93;5.83;;;9.30;99.90;;;;;;5075704;28;20459;-67
2022/02/23 09:59:27;;;;;;;7.43;5.07;;;9.40;99.90;;;;;;5075417;28;20959;-67
2022/02/23 10:01:55;;;;;;;19.43;5.03;;;9.50;99.90;;;;;;5075238;28;20519;-67
2022/02/23 10:04:23;;;;;;;12.63;4.50;;;9.60;99.90;;;;;;5075813;28;20444;-67
2022/02/23 10:06:52;;;;;;;16.83;4.97;;;9.70;99.90;;;;;;5075368;28;20475;-67
2022/02/23 10:09:19;;;;;;;19.93;5.50;;;9.80;99.90;;;;;;5075379;28;20465;-67
2022/02/23 10:11:48;;;;;;;16.00;5.17;;;9.90;99.90;;;;;;5075040;28;20924;-67
2022/02/23 10:14:15;;;;;;;14.40;5.67;;;9.90;99.90;;;;;;5075052;28;20461;-67
2022/02/23 10:16:46;;;;;;;18.97;5.30;;;10.10;99.90;;;;;;5075299;28;20445;-67
2022/02/23 10:19:14;;;;;;;19.10;5.10;;;10.10;99.90;;;;;;5074857;28;21057;-67
2022/02/23 10:21:56;;;;;;;23.93;4.67;;;10.30;99.90;;;;;;5075136;28;20480;-67
2022/02/23 10:24:29;;;;;;;17.30;3.87;;;10.50;99.90;;;;;;5075191;28;20432;-68
2022/02/23 10:27:02;;;;;;;14.03;4.10;;;10.60;99.90;;;;;;5075176;28;20444;-67
2022/02/23 10:29:33;;;;;;;13.00;3.93;;;10.70;99.90;;;;;;5074706;28;20469;-67
2022/02/23 10:32:01;;;;;;;10.73;3.70;;;10.90;99.90;;;;;;5075038;28;20444;-67
2022/02/23 10:34:28;;;;;;;11.03;3.43;;;10.90;99.20;;;;;;5074976;28;20429;-67
2022/02/23 10:37:05;;;;;;;15.67;4.63;;;11.00;98.70;;;;;;5074983;28;20540;-67
2022/02/23 10:39:40;;;;;;;13.10;3.80;;;11.30;98.60;;;;;;5075701;28;20846;-67
2022/02/23 10:42:08;;;;;;;14.63;3.93;;;11.50;96.60;;;;;;5074933;28;20564;-67
2022/02/23 10:44:35;;;;;;;11.43;3.20;;;11.90;96.10;;;;;;5074868;28;20764;-68
2022/02/23 10:47:03;;;;;;;8.60;2.60;;;12.30;95.20;;;;;;5074668;28;20449;-68
2022/02/23 10:49:29;;;;;;;8.77;3.00;;;12.70;94.40;;;;;;5074420;28;20979;-68
2022/02/23 10:52:06;;;;;;;9.67;2.93;;;13.10;93.30;;;;;;5074558;28;20943;-68
2022/02/23 10:54:34;;;;;;;9.00;3.70;;;13.40;91.40;;;;;;5074708;28;20425;-68
2022/02/23 10:57:01;;;;;;;8.07;2.40;;;13.40;89.30;;;;;;5074447;28;20455;-68
2022/02/23 10:59:28;;;;;;;7.97;2.73;;;13.50;87.50;;;;;;5074538;28;20473;-68
2022/02/23 11:01:55;;;;;;;8.90;2.77;;;13.80;88.80;;;;;;5074700;28;20477;-68
2022/02/23 11:04:22;;;;;;;11.80;3.10;;;13.90;84.00;;;;;;5074457;28;20444;-68
2022/02/23 11:06:51;;;;;;;9.77;2.83;;;14.10;84.10;;;;;;5074172;28;20818;-68
2022/02/23 11:09:19;;;;;;;10.73;2.70;;;14.50;83.90;;;;;;5074097;28;20506;-68
2022/02/23 11:11:47;;;;;;;9.90;3.13;;;14.90;81.50;;;;;;5073790;28;20951;-68
2022/02/23 11:14:16;;;;;;;6.63;2.80;;;15.40;76.40;;;;;;5074305;28;20448;-68
2022/02/23 11:16:44;;;;;;;7.87;3.00;;;15.60;72.60;;;;;;5074165;28;20437;-68
2022/02/23 11:19:17;;;;;;;16.57;3.80;;;15.80;72.10;;;;;;5073606;28;20472;-68
2022/02/23 11:21:46;;;;;;;8.30;2.60;;;16.30;67.90;;;;;;5073852;28;20475;-68
2022/02/23 11:24:13;;;;;;;7.23;2.73;;;16.60;65.00;;;;;;5073507;28;20821;-68
2022/02/23 11:26:42;;;;;;;9.57;3.30;;;16.60;62.00;;;;;;5073956;28;20445;-68
2022/02/23 11:29:20;;;;;;;13.20;3.60;;;16.70;61.20;;;;;;5073770;28;20522;-68
2022/02/23 11:31:50;;;;;;;11.90;3.17;;;17.10;60.90;;;;;;5074186;28;20425;-68
2022/02/23 11:34:19;;;;;;;6.70;2.63;;;17.40;58.80;;;;;;5073608;28;20989;-68
2022/02/23 11:36:49;;;;;;;12.90;3.20;;;17.40;57.00;;;;;;5073303;28;20935;-69
2022/02/23 11:39:18;;;;;;;7.93;2.87;;;17.40;56.50;;;;;;5073342;28;20473;-68
2022/02/23 11:41:49;;;;;;;10.93;2.83;;;17.00;54.40;;;;;;5073247;28;20481;-68
2022/02/23 11:44:17;;;;;;;7.20;2.70;;;16.60;55.80;;;;;;5073693;28;20444;-68
2022/02/23 11:47:16;;;;;;;6.53;2.83;;;16.30;56.90;;;;;;5073850;28;20449;-68
2022/02/23 11:50:04;;;;;;;12.03;3.00;;;16.50;58.20;;;;;;5074071;28;20484;-69
2022/02/23 11:53:08;;;;;;;8.40;2.70;;;16.70;55.10;;;;;;5074192;28;20449;-69
2022/02/23 11:56:09;;;;;;;8.87;2.30;;;16.70;55.60;;;;;;5074154;28;20519;-68
2022/02/23 11:58:50;;;;;;;8.70;2.63;;;16.90;54.30;;;;;;5073296;28;20468;-69
2022/02/23 12:01:19;;;;;;;13.93;3.20;;;16.80;54.70;;;;;;5073913;28;20499;-68
2022/02/23 12:04:08;;;;;;;6.90;1.97;;;16.90;53.00;;;;;;5073651;28;20496;-68
2022/02/23 12:07:13;;;;;;;10.13;3.00;;;16.90;51.40;;;;;;5073423;28;20437;-68
2022/02/23 12:10:18;;;;;;;15.30;2.47;;;17.30;52.40;;;;;;5073680;28;20456;-69
2022/02/23 12:12:46;;;;;;;8.37;2.30;;;17.60;51.10;;;;;;5073723;28;20428;-68
2022/02/23 12:15:26;;;;;;;8.57;2.60;;;18.00;50.90;;;;;;5073602;28;20448;-68
2022/02/23 12:17:58;;;;;;;6.47;2.60;;;18.50;49.10;;;;;;5073498;28;20429;-68
2022/02/23 12:20:51;;;;;;;8.20;3.03;;;19.00;48.60;;;;;;5073181;28;20896;-68
2022/02/23 12:23:37;;;;;;;5.60;2.00;;;19.50;45.70;;;;;;5073403;28;20489;-68
2022/02/23 12:26:28;;;;;;;8.10;3.17;;;19.50;43.90;;;;;;5073488;28;20794;-69
2022/02/23 12:28:57;;;;;;;6.70;2.63;;;18.80;46.00;;;;;;5073506;28;20468;-69
2022/02/23 12:31:29;;;;;;;6.43;2.10;;;18.40;46.30;;;;;;5073524;28;20436;-69
2022/02/23 12:33:59;;;;;;;9.23;2.67;;;18.50;46.80;;;;;;5073452;28;20429;-69
2022/02/23 12:36:30;;;;;;;10.90;2.67;;;18.50;44.70;;;;;;5073486;28;20448;-69
2022/02/23 12:38:59;;;;;;;7.70;1.93;;;18.80;46.00;;;;;;5073004;28;20466;-69
2022/02/23 12:41:28;;;;;;;6.10;2.20;;;19.10;45.90;;;;;;5073284;28;20476;-69
2022/02/23 12:43:56;;;;;;;6.80;2.80;;;19.40;46.00;;;;;;5073232;28;20505;-69
2022/02/23 12:46:23;;;;;;;7.53;2.17;;;20.00;45.90;;;;;;5073175;28;20474;-69
2022/02/23 12:48:55;;;;;;;10.37;2.47;;;20.60;42.30;;;;;;5073214;28;20491;-69
2022/02/23 12:51:23;;;;;;;9.27;2.60;;;21.20;41.50;;;;;;5073358;28;20421;-69
2022/02/23 12:53:53;;;;;;;5.63;2.13;;;21.50;39.60;;;;;;5073225;28;20449;-69
2022/02/23 12:56:23;;;;;;;11.93;3.20;;;21.30;40.50;;;;;;5072901;28;20451;-69
2022/02/23 12:58:52;;;;;;;7.53;2.50;;;21.40;41.40;;;;;;5073419;28;20471;-69
2022/02/23 13:01:20;;;;;;;6.10;2.10;;;21.70;40.50;;;;;;5073448;28;20868;-69